createdAt,value
2019-04-10T00:00:51.367Z,72.34
2019-04-10T00:03:42.030Z,73.36
2019-04-10T00:06:30.178Z,74.09
2019-04-10T00:09:19.547Z,73.83
2019-04-10T00:12:10.112Z,73.52
2019-04-10T00:15:03.073Z,73.62
2019-04-10T00:17:51.959Z,73.63
2019-04-10T00:20:40.640Z,73.31
2019-04-10T00:23:31.082Z,73.42
2019-04-10T00:26:19.999Z,73.22
2019-04-10T00:29:08.832Z,73.17
2019-04-10T00:32:00.200Z,73.24
2019-04-10T00:34:47.676Z,73.79
2019-04-10T00:37:37.363Z,73.60
2019-04-10T00:40:27.605Z,73.43
2019-04-10T00:43:17.103Z,73.06
2019-04-10T00:46:06.161Z,72.75
2019-04-10T00:48:56.273Z,72.93
2019-04-10T00:51:45.812Z,73.16
2019-04-10T00:54:35.166Z,74.07
2019-04-10T00:57:23.677Z,74.10
2019-04-10T01:00:12.826Z,73.59
2019-04-10T01:03:02.126Z,73.59
2019-04-10T01:05:51.341Z,73.45
2019-04-10T01:08:40.635Z,73.13
2019-04-10T01:11:29.154Z,73.89
2019-04-10T01:14:17.886Z,73.62
2019-04-10T01:17:08.382Z,73.45
2019-04-10T01:19:57.222Z,73.22
2019-04-10T01:22:47.692Z,73.05
2019-04-10T01:25:36.865Z,73.07
2019-04-10T01:28:25.134Z,72.78
2019-04-10T01:31:14.967Z,72.76
2019-04-10T01:34:05.348Z,72.71
2019-04-10T01:36:54.700Z,72.44
2019-04-10T01:39:43.649Z,72.53
2019-04-10T01:42:32.415Z,72.77
2019-04-10T01:45:21.729Z,73.25
2019-04-10T01:48:10.036Z,73.15
2019-04-10T01:50:59.056Z,72.88
2019-04-10T01:53:48.246Z,72.73
2019-04-10T01:56:37.334Z,72.68
2019-04-10T01:59:27.318Z,73.12
2019-04-10T02:02:25.333Z,73.00
2019-04-10T02:05:14.481Z,73.25
2019-04-10T02:08:09.134Z,73.35
2019-04-10T02:10:53.675Z,73.08
2019-04-10T02:13:43.228Z,73.03
2019-04-10T02:16:32.656Z,73.00
2019-04-10T02:19:21.923Z,73.32
2019-04-10T02:22:11.772Z,72.95
2019-04-10T02:25:00.847Z,72.62
2019-04-10T02:27:50.901Z,73.24
2019-04-10T02:30:43.118Z,73.33
2019-04-10T02:33:31.448Z,73.20
2019-04-10T02:36:21.273Z,73.07
2019-04-10T02:39:20.640Z,73.31
2019-04-10T02:42:02.864Z,73.22
2019-04-10T02:44:52.152Z,73.30
2019-04-10T02:47:41.205Z,73.01
2019-04-10T02:50:31.157Z,72.97
2019-04-10T02:53:21.564Z,72.80
2019-04-10T02:56:11.787Z,72.48
2019-04-10T02:59:00.820Z,72.35
2019-04-10T03:01:49.789Z,72.63
2019-04-10T03:04:40.360Z,72.69
2019-04-10T03:07:31.909Z,72.64
2019-04-10T03:10:30.059Z,72.53
2019-04-10T03:13:13.591Z,72.44
2019-04-10T03:16:03.144Z,72.42
2019-04-10T03:18:52.924Z,72.81
2019-04-10T03:21:42.960Z,72.72
2019-04-10T03:24:31.738Z,72.44
2019-04-10T03:27:20.550Z,72.25
2019-04-10T03:30:10.933Z,72.08
2019-04-10T03:33:29.313Z,71.94
2019-04-10T03:36:15.918Z,72.31
2019-04-10T03:39:07.677Z,72.46
2019-04-10T03:41:56.788Z,72.61
2019-04-10T03:44:45.619Z,72.37
2019-04-10T03:47:34.265Z,72.50
2019-04-10T03:50:23.687Z,72.49
2019-04-10T03:53:12.565Z,72.34
2019-04-10T03:56:01.236Z,71.96
2019-04-10T03:58:51.428Z,71.60
2019-04-10T04:01:40.950Z,71.35
2019-04-10T04:04:30.052Z,71.36
2019-04-10T04:07:18.765Z,71.94
2019-04-10T04:10:09.341Z,72.59
2019-04-10T04:13:00.005Z,73.42
2019-04-10T04:15:50.561Z,73.45
2019-04-10T04:18:39.486Z,73.26
2019-04-10T04:21:28.678Z,73.00
2019-04-10T04:24:17.842Z,73.41
2019-04-10T04:27:07.624Z,73.34
2019-04-10T04:29:57.418Z,73.18
2019-04-10T04:32:46.153Z,73.24
2019-04-10T04:35:36.622Z,72.77
2019-04-10T04:38:27.706Z,73.07
2019-04-10T04:41:17.406Z,72.61
2019-04-10T04:44:06.638Z,72.41
2019-04-10T04:46:56.909Z,72.81
2019-04-10T04:49:46.730Z,72.63
2019-04-10T04:52:35.580Z,72.43
2019-04-10T04:55:24.440Z,72.25
2019-04-10T04:58:13.789Z,72.11
2019-04-10T05:01:02.646Z,72.02
2019-04-10T05:03:52.626Z,71.80
2019-04-10T05:06:41.853Z,71.86
2019-04-10T05:09:35.577Z,71.22
2019-04-10T05:12:20.559Z,69.81
2019-04-10T05:15:10.911Z,69.36
2019-04-10T05:17:59.940Z,68.29
2019-04-10T05:20:50.858Z,67.14
2019-04-10T05:23:39.689Z,66.47
2019-04-10T05:26:29.876Z,66.44
2019-04-10T05:29:19.562Z,66.29
2019-04-10T05:32:09.297Z,65.67
2019-04-10T05:34:58.563Z,65.78
2019-04-10T05:37:47.789Z,66.08
2019-04-10T05:40:36.709Z,64.99
2019-04-10T05:43:26.168Z,65.72
2019-04-10T05:46:14.874Z,65.62
2019-04-10T05:49:04.440Z,65.02
2019-04-10T05:51:56.379Z,64.22
2019-04-10T05:54:45.509Z,65.72
2019-04-10T05:57:34.905Z,65.86
2019-04-10T06:00:25.009Z,65.53
2019-04-10T06:03:14.539Z,65.33
2019-04-10T06:06:04.158Z,65.17
2019-04-10T06:08:52.995Z,65.23
2019-04-10T06:11:44.015Z,64.64
2019-04-10T06:14:32.464Z,64.50
2019-04-10T06:17:22.602Z,63.99
2019-04-10T06:20:14.006Z,64.03
2019-04-10T06:23:03.209Z,63.57
2019-04-10T06:25:52.153Z,63.19
2019-04-10T06:28:40.875Z,63.27
2019-04-10T06:31:30.487Z,64.13
2019-04-10T06:34:20.566Z,62.75
2019-04-10T06:37:10.171Z,63.21
2019-04-10T06:40:10.707Z,63.71
2019-04-10T06:42:53.113Z,64.09
2019-04-10T06:45:39.939Z,62.95
2019-04-10T06:48:29.029Z,62.42
2019-04-10T06:51:19.874Z,61.56
2019-04-10T06:54:11.043Z,61.10
2019-04-10T06:59:08.817Z,62.13
2019-04-10T07:02:11.436Z,62.02
2019-04-10T07:04:53.095Z,61.31
2019-04-10T07:07:48.533Z,61.47
2019-04-10T07:10:39.899Z,61.12
2019-04-10T07:13:19.737Z,60.69
2019-04-10T07:16:10.119Z,60.30
2019-04-10T07:19:03.079Z,60.24
2019-04-10T07:21:49.212Z,60.21
2019-04-10T07:24:41.198Z,59.99
2019-04-10T07:27:32.487Z,60.16
2019-04-10T07:30:23.598Z,58.74
2019-04-10T07:33:09.763Z,59.44
2019-04-10T07:35:59.235Z,60.26
2019-04-10T07:38:48.907Z,59.77
2019-04-10T07:41:37.871Z,59.69
2019-04-10T07:44:27.183Z,60.23
2019-04-10T07:47:15.490Z,59.62
2019-04-10T07:50:08.754Z,59.72
2019-04-10T07:52:58.106Z,59.36
2019-04-10T07:56:00.366Z,58.30
2019-04-10T07:58:37.769Z,59.70
2019-04-10T08:01:26.446Z,59.11
2019-04-10T08:04:15.275Z,58.87
2019-04-10T08:07:03.721Z,59.92
2019-04-10T08:09:52.374Z,59.59
2019-04-10T08:12:47.586Z,60.09
2019-04-10T08:15:31.584Z,59.75
2019-04-10T08:18:21.206Z,59.35
2019-04-10T08:21:09.637Z,58.77
2019-04-10T08:23:58.603Z,58.98
2019-04-10T08:26:47.838Z,58.34
2019-04-10T08:29:36.762Z,58.28
2019-04-10T08:32:25.757Z,58.55
2019-04-10T08:35:15.449Z,59.63
2019-04-10T08:38:05.500Z,59.91
2019-04-10T08:40:54.553Z,60.33
2019-04-10T08:43:43.585Z,59.82
2019-04-10T08:46:33.561Z,60.00
2019-04-10T08:49:22.935Z,59.22
2019-04-10T08:52:12.268Z,59.08
2019-04-10T08:55:03.754Z,60.37
2019-04-10T08:57:52.639Z,62.00
2019-04-10T09:00:41.120Z,62.56
2019-04-10T09:03:30.926Z,62.75
2019-04-10T09:06:20.782Z,61.61
2019-04-10T09:09:09.773Z,61.21
2019-04-10T09:11:59.720Z,61.17
2019-04-10T09:14:49.592Z,60.80
2019-04-10T09:17:39.556Z,59.43
2019-04-10T09:20:28.900Z,59.40
2019-04-10T09:23:29.813Z,58.99
2019-04-10T09:26:08.844Z,60.12
2019-04-10T09:28:58.880Z,58.77
2019-04-10T09:31:48.145Z,59.33
2019-04-10T09:34:37.972Z,58.57
2019-04-10T09:37:28.221Z,58.82
2019-04-10T09:40:16.822Z,59.63
2019-04-10T09:43:05.946Z,58.69
2019-04-10T09:45:55.729Z,57.83
2019-04-10T09:48:44.959Z,58.08
2019-04-10T09:51:34.195Z,58.58
2019-04-10T09:54:23.995Z,57.48
2019-04-10T09:57:13.310Z,58.16
2019-04-10T10:00:02.864Z,57.08
2019-04-10T10:02:52.881Z,57.84
2019-04-10T10:05:42.465Z,57.56
2019-04-10T10:08:31.780Z,57.55
2019-04-10T10:11:24.653Z,57.71
2019-04-10T10:14:13.288Z,57.76
2019-04-10T10:17:02.220Z,57.87
2019-04-10T10:19:53.525Z,58.08
2019-04-10T10:22:41.499Z,58.34
2019-04-10T10:25:30.985Z,57.69
2019-04-10T10:28:20.821Z,57.19
2019-04-10T10:31:09.922Z,58.18
2019-04-10T10:33:59.098Z,58.26
2019-04-10T10:36:50.647Z,58.18
2019-04-10T10:39:38.985Z,57.92
2019-04-10T10:42:28.348Z,56.88
2019-04-10T10:45:18.636Z,58.06
2019-04-10T10:48:08.613Z,58.25
2019-04-10T10:50:58.247Z,58.05
2019-04-10T10:53:48.292Z,57.62
2019-04-10T10:56:38.222Z,56.74
2019-04-10T10:59:27.366Z,57.36
2019-04-10T11:02:17.091Z,57.50
2019-04-10T11:05:07.168Z,58.03
2019-04-10T11:07:57.327Z,58.76
2019-04-10T11:10:50.457Z,57.98
2019-04-10T11:13:37.127Z,57.61
2019-04-10T11:16:27.169Z,58.85
2019-04-10T11:19:17.274Z,58.64
2019-04-10T11:22:07.476Z,58.80
2019-04-10T11:24:57.540Z,57.82
2019-04-10T11:27:47.542Z,58.65
2019-04-10T11:30:36.496Z,59.00
2019-04-10T11:33:26.325Z,59.12
2019-04-10T11:36:17.441Z,58.84
2019-04-10T11:41:59.402Z,59.27
2019-04-10T11:44:49.334Z,60.04
2019-04-10T11:47:38.841Z,59.73
2019-04-10T11:50:28.599Z,60.56
2019-04-10T11:53:19.111Z,60.10
2019-04-10T11:56:10.384Z,60.71
2019-04-10T11:58:59.330Z,60.20
2019-04-10T12:01:50.692Z,59.66
2019-04-10T12:04:48.019Z,59.09
2019-04-10T12:13:10.350Z,58.68
2019-04-10T12:15:59.477Z,58.59
2019-04-10T12:18:48.880Z,58.61
2019-04-10T12:21:38.001Z,57.87
2019-04-10T12:24:27.311Z,57.90
2019-04-10T12:27:16.669Z,57.78
2019-04-10T12:30:07.936Z,58.10
2019-04-10T12:32:56.851Z,57.70
2019-04-10T12:35:45.766Z,57.97
2019-04-10T12:38:34.386Z,58.00
2019-04-10T12:41:23.519Z,57.66
2019-04-10T12:44:13.597Z,57.42
2019-04-10T12:47:03.540Z,57.35
2019-04-10T12:49:58.226Z,57.28
2019-04-10T12:52:49.344Z,57.67
2019-04-10T12:55:38.958Z,58.01
2019-04-10T12:58:28.863Z,57.30
2019-04-10T13:01:18.431Z,56.98
2019-04-10T13:04:07.529Z,57.05
2019-04-10T13:06:57.001Z,57.34
2019-04-10T13:09:46.323Z,56.17
2019-04-10T13:12:36.018Z,55.71
2019-04-10T13:15:27.687Z,55.92
2019-04-10T13:18:16.936Z,56.95
2019-04-10T13:21:06.346Z,56.10
2019-04-10T13:23:57.279Z,56.66
2019-04-10T13:26:50.256Z,56.59
2019-04-10T13:29:39.209Z,55.53
2019-04-10T13:32:28.123Z,56.08
2019-04-10T13:35:17.957Z,54.76
2019-04-10T13:38:07.329Z,55.00
2019-04-10T13:40:56.359Z,55.00
2019-04-10T13:43:47.779Z,54.94
2019-04-10T13:46:37.285Z,52.76
2019-04-10T13:49:26.180Z,52.25
2019-04-10T13:52:16.136Z,51.76
2019-04-10T13:55:05.712Z,51.33
2019-04-10T13:57:55.034Z,51.26
2019-04-10T14:00:43.716Z,51.73
2019-04-10T14:03:32.706Z,51.98
2019-04-10T14:06:21.819Z,51.06
2019-04-10T14:09:30.064Z,51.24
2019-04-10T14:12:08.446Z,51.40
2019-04-10T14:14:57.369Z,51.87
2019-04-10T14:17:46.652Z,52.68
2019-04-10T14:20:35.593Z,52.82
2019-04-10T14:23:28.631Z,52.95
2019-04-10T14:26:45.852Z,53.51
2019-04-10T14:29:25.185Z,54.08
2019-04-10T14:32:20.797Z,54.38
2019-04-10T14:35:10.385Z,53.68
2019-04-10T14:38:01.012Z,54.51
2019-04-10T14:40:50.076Z,53.72
2019-04-10T14:43:39.756Z,53.74
2019-04-10T14:46:28.905Z,54.15
2019-04-10T14:49:18.749Z,54.18
2019-04-10T14:52:08.725Z,54.56
2019-04-10T14:54:57.684Z,54.25
2019-04-10T14:57:47.960Z,54.13
2019-04-10T15:00:41.160Z,54.47
2019-04-10T15:03:30.695Z,55.06
2019-04-10T15:06:22.734Z,55.36
2019-04-10T15:09:25.570Z,54.71
2019-04-10T15:12:12.303Z,54.73
2019-04-10T15:15:01.750Z,54.75
2019-04-10T15:17:51.173Z,55.09
2019-04-10T15:20:40.242Z,54.88
2019-04-10T15:23:29.619Z,54.75
2019-04-10T15:26:18.210Z,54.89
2019-04-10T15:29:07.837Z,55.13
2019-04-10T15:31:57.823Z,55.26
2019-04-10T15:34:48.269Z,55.26
2019-04-10T15:37:37.420Z,55.27
2019-04-10T15:40:27.662Z,55.08
2019-04-10T15:43:16.805Z,55.34
2019-04-10T15:46:06.221Z,55.21
2019-04-10T15:48:55.161Z,55.48
2019-04-10T15:51:44.157Z,55.58
2019-04-10T15:54:33.985Z,55.92
2019-04-10T15:57:23.250Z,56.07
2019-04-10T16:00:12.842Z,55.82
2019-04-10T16:03:01.433Z,56.27
2019-04-10T16:05:50.567Z,56.22
2019-04-10T16:08:40.789Z,56.44
2019-04-10T16:11:47.062Z,56.48
2019-04-10T16:14:35.954Z,56.55
2019-04-10T16:17:44.026Z,56.60
2019-04-10T16:20:33.976Z,57.34
2019-04-10T16:23:29.088Z,57.86
2019-04-10T16:26:18.775Z,57.88
2019-04-10T16:29:08.281Z,58.35
2019-04-10T16:31:56.845Z,58.90
2019-04-10T16:34:47.103Z,59.61
2019-04-10T16:37:36.153Z,59.26
2019-04-10T16:40:24.905Z,59.54
2019-04-10T16:43:13.991Z,61.06
2019-04-10T16:46:02.862Z,61.26
2019-04-10T16:48:51.267Z,61.06
2019-04-10T16:51:40.582Z,61.86
2019-04-10T16:54:29.299Z,62.18
2019-04-10T16:57:18.516Z,63.88
2019-04-10T17:00:08.158Z,63.31
2019-04-10T17:02:57.070Z,63.47
2019-04-10T17:05:46.307Z,63.48
2019-04-10T17:08:37.340Z,63.58
2019-04-10T17:11:27.104Z,64.26
2019-04-10T17:14:17.474Z,64.48
2019-04-10T17:17:06.888Z,64.95
2019-04-10T17:19:57.306Z,64.39
2019-04-10T17:22:48.581Z,64.58
2019-04-10T17:25:36.010Z,64.42
2019-04-10T17:28:26.524Z,64.54
2019-04-10T17:31:18.219Z,64.26
2019-04-10T17:34:06.790Z,64.29
2019-04-10T17:36:57.035Z,64.58
2019-04-10T17:39:45.630Z,62.93
2019-04-10T17:42:34.556Z,63.46
2019-04-10T17:45:25.839Z,64.55
2019-04-10T17:48:15.645Z,63.29
2019-04-10T17:51:05.843Z,62.91
2019-04-10T17:53:55.914Z,63.71
2019-04-10T17:56:46.513Z,64.66
2019-04-10T17:59:35.832Z,64.44
2019-04-10T18:02:25.450Z,64.58
2019-04-10T18:05:14.820Z,65.09
2019-04-10T18:08:05.106Z,65.16
2019-04-10T18:10:56.024Z,65.23
2019-04-10T18:13:45.035Z,65.21
2019-04-10T18:16:33.930Z,65.98
2019-04-10T18:19:22.597Z,66.72
2019-04-10T18:22:12.174Z,66.52
2019-04-10T18:25:01.548Z,67.07
2019-04-10T18:27:50.074Z,68.06
2019-04-10T18:30:39.171Z,67.83
2019-04-10T18:33:29.230Z,67.25
2019-04-10T18:36:17.579Z,67.48
2019-04-10T18:39:12.801Z,67.78
2019-04-10T18:42:01.294Z,68.58
2019-04-10T18:44:50.336Z,68.23
2019-04-10T18:47:39.418Z,68.03
2019-04-10T18:50:28.678Z,67.92
2019-04-10T18:53:19.195Z,67.98
2019-04-10T18:56:09.083Z,68.67
2019-04-10T18:59:08.569Z,68.04
2019-04-10T19:02:20.448Z,68.06
2019-04-10T19:05:19.408Z,67.61
2019-04-10T19:08:12.775Z,67.11
2019-04-10T19:11:10.609Z,67.16
2019-04-10T19:13:51.018Z,66.40
2019-04-10T19:16:41.486Z,66.14
2019-04-10T19:19:30.652Z,66.11
2019-04-10T19:22:20.327Z,66.53
2019-04-10T19:25:10.483Z,66.92
2019-04-10T19:28:00.343Z,66.82
2019-04-10T19:31:09.640Z,67.37
2019-04-10T19:33:49.156Z,66.92
2019-04-10T19:36:38.105Z,66.97
2019-04-10T19:39:27.368Z,67.03
2019-04-10T19:42:17.483Z,67.55
2019-04-10T19:45:09.836Z,67.15
2019-04-10T19:47:59.003Z,67.41
2019-04-10T19:50:47.990Z,67.54
2019-04-10T19:53:37.486Z,67.28
2019-04-10T19:56:26.745Z,67.01
2019-04-10T19:59:16.693Z,66.42
2019-04-10T20:02:06.693Z,67.09
2019-04-10T20:04:56.982Z,67.10
2019-04-10T20:07:47.531Z,67.37
2019-04-10T20:10:37.370Z,67.70
2019-04-10T20:13:26.954Z,67.98
2019-04-10T20:16:15.689Z,67.86
2019-04-10T20:19:05.488Z,67.61
2019-04-10T20:21:56.484Z,67.11
2019-04-10T20:24:47.224Z,67.23
2019-04-10T20:27:36.206Z,67.00
2019-04-10T20:30:28.075Z,67.25
2019-04-10T20:33:18.676Z,67.10
2019-04-10T20:36:08.913Z,67.12
2019-04-10T20:38:59.003Z,67.23
2019-04-10T20:41:53.222Z,66.93
2019-04-10T20:44:38.766Z,66.93
2019-04-10T20:47:28.006Z,67.09
2019-04-10T20:50:17.461Z,67.48
2019-04-10T20:53:07.489Z,67.91
2019-04-10T20:55:56.131Z,67.95
2019-04-10T20:58:45.053Z,67.44
2019-04-10T21:01:35.095Z,67.82
2019-04-10T21:04:23.897Z,67.56
2019-04-10T21:07:12.796Z,67.93
2019-04-10T21:10:01.283Z,68.37
2019-04-10T21:12:50.433Z,68.12
2019-04-10T21:15:40.096Z,68.50
2019-04-10T21:18:29.248Z,68.52
2019-04-10T21:21:18.601Z,68.62
2019-04-10T21:24:07.761Z,68.61
2019-04-10T21:26:56.969Z,68.39
2019-04-10T21:30:07.499Z,68.67
2019-04-10T21:33:03.882Z,68.92
2019-04-10T21:35:54.069Z,68.78
2019-04-10T21:38:42.834Z,68.64
2019-04-10T21:41:32.679Z,69.03
2019-04-10T21:44:21.783Z,69.17
2019-04-10T21:47:11.098Z,68.85
2019-04-10T21:50:00.407Z,69.02
2019-04-10T21:52:49.827Z,68.84
2019-04-10T21:55:39.511Z,68.72
2019-04-10T21:58:28.742Z,67.91
2019-04-10T22:01:18.569Z,67.97
2019-04-10T22:04:08.207Z,67.96
2019-04-10T22:07:14.028Z,68.07
2019-04-10T22:10:19.940Z,68.17
2019-04-10T22:13:09.035Z,67.74
2019-04-10T22:15:59.690Z,68.39
2019-04-10T22:18:48.150Z,68.22
2019-04-10T22:21:37.611Z,68.10
2019-04-10T22:24:26.878Z,67.84
2019-04-10T22:27:17.006Z,67.84
2019-04-10T22:30:08.325Z,68.11
2019-04-10T22:33:03.286Z,68.03
2019-04-10T22:35:52.609Z,67.90
2019-04-10T22:38:41.861Z,67.71
2019-04-10T22:41:32.718Z,67.72
2019-04-10T22:44:32.470Z,67.47
2019-04-10T22:47:11.290Z,67.44
2019-04-10T22:50:00.839Z,67.34
2019-04-10T22:52:50.706Z,66.65
2019-04-10T22:55:40.253Z,66.15
2019-04-10T22:58:29.221Z,66.69
2019-04-10T23:01:18.621Z,67.20
2019-04-10T23:04:08.015Z,66.99
2019-04-10T23:06:57.712Z,67.20
2019-04-10T23:09:47.098Z,67.08
2019-04-10T23:12:35.628Z,67.08
2019-04-10T23:15:25.120Z,66.86
2019-04-10T23:18:15.120Z,66.97
2019-04-10T23:21:04.146Z,67.03
2019-04-10T23:23:52.728Z,66.86
2019-04-10T23:26:41.638Z,67.10
2019-04-10T23:29:30.950Z,66.99
2019-04-10T23:32:19.481Z,67.03
2019-04-10T23:35:07.894Z,67.14
2019-04-10T23:37:57.290Z,66.82
2019-04-10T23:40:45.840Z,66.39
2019-04-10T23:43:35.669Z,66.89
2019-04-10T23:46:24.773Z,66.88
2019-04-10T23:49:13.375Z,66.20
2019-04-10T23:52:01.831Z,66.84
2019-04-10T23:54:51.367Z,66.77
2019-04-10T23:57:41.129Z,66.88
